createdAt,value
2017-11-30T00:00:01.860Z,99.90
2017-11-30T00:02:30.807Z,99.70
2017-11-30T00:05:00.045Z,99.60
2017-11-30T00:07:29.278Z,99.60
2017-11-30T00:09:58.538Z,99.50
2017-11-30T00:12:27.833Z,99.60
2017-11-30T00:14:57.091Z,99.70
2017-11-30T00:17:27.099Z,99.70
2017-11-30T00:19:56.354Z,99.60
2017-11-30T00:22:25.627Z,99.40
2017-11-30T00:24:55.049Z,99.30
2017-11-30T00:27:24.307Z,99.10
2017-11-30T00:29:53.563Z,99.20
2017-11-30T00:32:22.832Z,99.30
2017-11-30T00:34:52.071Z,99.30
2017-11-30T00:37:21.315Z,99.30
2017-11-30T00:39:50.650Z,99.30
2017-11-30T00:42:37.575Z,99.50
2017-11-30T00:45:06.915Z,99.60
2017-11-30T00:47:36.945Z,99.90
2017-11-30T00:50:06.167Z,99.90
2017-11-30T00:52:35.403Z,99.90
2017-11-30T00:55:04.670Z,99.90
2017-11-30T00:57:34.765Z,99.90
2017-11-30T01:00:04.028Z,99.90
2017-11-30T01:02:33.450Z,99.90
2017-11-30T01:05:02.743Z,99.90
2017-11-30T01:07:31.989Z,99.90
2017-11-30T01:10:01.243Z,99.90
2017-11-30T01:12:30.472Z,99.90
2017-11-30T01:14:59.707Z,99.90
2017-11-30T01:17:33.942Z,99.90
2017-11-30T01:20:03.188Z,99.90
2017-11-30T01:22:32.597Z,99.90
2017-11-30T01:25:01.833Z,99.90
2017-11-30T01:27:31.064Z,99.90
2017-11-30T01:30:00.347Z,99.90
2017-11-30T01:32:29.831Z,99.90
2017-11-30T01:34:59.084Z,99.90
2017-11-30T01:37:29.828Z,99.90
2017-11-30T01:39:59.834Z,99.90
2017-11-30T01:42:29.247Z,99.90
2017-11-30T01:44:59.286Z,99.90
2017-11-30T01:47:28.658Z,99.90
2017-11-30T01:49:58.967Z,99.90
2017-11-30T01:52:28.302Z,99.90
2017-11-30T01:54:57.585Z,99.90
2017-11-30T01:57:26.872Z,99.90
2017-11-30T01:59:56.110Z,99.90
2017-11-30T02:02:25.476Z,99.90
2017-11-30T02:04:54.796Z,99.90
2017-11-30T02:07:24.163Z,99.90
2017-11-30T02:09:53.491Z,99.90
2017-11-30T02:12:22.749Z,99.90
2017-11-30T02:14:52.057Z,99.90
2017-11-30T02:17:21.298Z,99.90
2017-11-30T02:19:50.579Z,99.90
2017-11-30T02:22:19.904Z,99.90
2017-11-30T02:24:49.964Z,99.90
2017-11-30T02:27:19.310Z,99.90
2017-11-30T02:29:48.598Z,99.90
2017-11-30T02:32:17.924Z,99.90
2017-11-30T02:34:47.994Z,99.90
2017-11-30T02:37:17.431Z,99.90
2017-11-30T02:39:47.613Z,99.90
2017-11-30T02:42:16.935Z,99.70
2017-11-30T02:44:46.272Z,99.90
2017-11-30T02:47:16.369Z,99.90
2017-11-30T02:49:45.652Z,99.90
2017-11-30T02:52:14.898Z,99.90
2017-11-30T02:54:44.169Z,99.90
2017-11-30T02:57:13.412Z,99.90
2017-11-30T02:59:43.405Z,99.90
2017-11-30T03:02:12.676Z,99.90
2017-11-30T03:04:41.915Z,99.90
2017-11-30T03:07:11.918Z,99.90
2017-11-30T03:09:41.165Z,99.90
2017-11-30T03:12:10.404Z,99.90
2017-11-30T03:14:39.667Z,99.90
2017-11-30T03:17:08.913Z,99.90
2017-11-30T03:19:38.172Z,99.90
2017-11-30T03:22:07.456Z,99.90
2017-11-30T03:24:36.781Z,99.90
2017-11-30T03:27:06.107Z,99.90
2017-11-30T03:29:35.432Z,99.90
2017-11-30T03:32:04.753Z,99.90
2017-11-30T03:34:33.974Z,99.90
2017-11-30T03:37:03.236Z,99.90
2017-11-30T03:39:32.477Z,99.90
2017-11-30T03:42:01.716Z,99.90
2017-11-30T03:44:31.012Z,99.90
2017-11-30T03:47:00.226Z,99.90
2017-11-30T03:49:29.530Z,99.90
2017-11-30T03:51:58.761Z,99.90
2017-11-30T03:54:28.227Z,99.90
2017-11-30T03:56:57.540Z,99.90
2017-11-30T03:59:26.803Z,99.90
2017-11-30T04:01:56.060Z,99.90
2017-11-30T04:04:26.067Z,99.90
2017-11-30T04:06:55.318Z,99.90
2017-11-30T04:09:24.596Z,99.90
2017-11-30T04:11:53.872Z,99.90
2017-11-30T04:14:23.901Z,99.90
2017-11-30T04:16:53.128Z,99.90
2017-11-30T04:19:22.395Z,99.90
2017-11-30T04:21:52.750Z,99.90
2017-11-30T04:24:21.999Z,99.90
2017-11-30T04:26:51.253Z,99.90
2017-11-30T04:29:20.491Z,99.90
2017-11-30T04:31:49.743Z,99.90
2017-11-30T04:34:19.015Z,99.90
2017-11-30T04:36:49.038Z,99.90
2017-11-30T04:39:18.271Z,99.90
2017-11-30T04:41:47.531Z,99.90
2017-11-30T04:44:17.537Z,99.90
2017-11-30T04:46:46.792Z,99.90
2017-11-30T04:49:16.066Z,99.90
2017-11-30T04:51:46.083Z,99.90
2017-11-30T04:54:15.355Z,99.90
2017-11-30T04:56:44.611Z,99.90
2017-11-30T04:59:14.646Z,99.90
2017-11-30T05:01:43.904Z,99.90
2017-11-30T05:04:13.167Z,99.90
2017-11-30T05:06:42.402Z,99.90
2017-11-30T05:09:12.734Z,99.90
2017-11-30T05:11:41.926Z,99.90
2017-11-30T05:14:11.172Z,99.90
2017-11-30T05:16:40.468Z,99.90
2017-11-30T05:19:09.715Z,99.90
2017-11-30T05:21:39.720Z,99.90
2017-11-30T05:24:10.467Z,99.90
2017-11-30T05:26:39.711Z,99.90
2017-11-30T05:29:09.212Z,99.90
2017-11-30T05:31:38.447Z,99.90
2017-11-30T05:34:07.686Z,99.90
2017-11-30T05:36:36.947Z,99.90
2017-11-30T05:39:06.191Z,99.90
2017-11-30T05:41:36.289Z,99.90
2017-11-30T05:44:05.620Z,99.90
2017-11-30T05:46:34.890Z,99.90
2017-11-30T05:49:04.195Z,99.90
2017-11-30T05:51:33.446Z,99.90
2017-11-30T05:54:02.682Z,99.90
2017-11-30T05:56:31.947Z,99.90
2017-11-30T05:59:01.230Z,99.90
2017-11-30T06:01:30.522Z,99.90
2017-11-30T06:04:00.634Z,99.90
2017-11-30T06:06:30.627Z,99.90
2017-11-30T06:08:59.899Z,99.90
2017-11-30T06:11:29.192Z,99.90
2017-11-30T06:13:58.440Z,99.90
2017-11-30T06:16:27.840Z,99.90
2017-11-30T06:18:57.173Z,99.90
2017-11-30T06:21:26.438Z,99.90
2017-11-30T06:23:55.762Z,99.90
2017-11-30T06:26:25.646Z,99.90
2017-11-30T06:28:54.887Z,99.90
2017-11-30T06:31:24.139Z,99.90
2017-11-30T06:33:53.376Z,99.90
2017-11-30T06:36:23.410Z,99.90
2017-11-30T06:38:52.640Z,99.90
2017-11-30T06:41:21.870Z,99.90
2017-11-30T06:43:51.250Z,99.90
2017-11-30T06:46:20.527Z,99.90
2017-11-30T06:48:49.779Z,99.90
2017-11-30T06:51:19.131Z,99.90
2017-11-30T06:53:48.377Z,99.90
2017-11-30T06:56:17.648Z,99.90
2017-11-30T06:58:46.991Z,99.90
2017-11-30T07:01:16.256Z,99.90
2017-11-30T07:03:45.616Z,99.90
2017-11-30T07:06:15.658Z,99.90
2017-11-30T07:08:44.911Z,99.90
2017-11-30T07:11:14.553Z,99.90
2017-11-30T07:13:44.550Z,99.90
2017-11-30T07:16:13.951Z,99.90
2017-11-30T07:18:43.969Z,99.90
2017-11-30T07:21:13.219Z,99.90
2017-11-30T07:23:42.551Z,99.90
2017-11-30T07:26:11.807Z,99.90
2017-11-30T07:28:41.071Z,99.90
2017-11-30T07:31:10.335Z,99.90
2017-11-30T07:33:39.623Z,99.90
2017-11-30T07:36:09.570Z,99.90
2017-11-30T07:38:38.924Z,99.90
2017-11-30T07:41:08.159Z,99.90
2017-11-30T07:43:37.418Z,99.90
2017-11-30T07:46:06.660Z,99.90
2017-11-30T07:48:35.896Z,99.90
2017-11-30T07:51:05.156Z,99.90
2017-11-30T07:53:34.399Z,99.90
2017-11-30T07:56:03.658Z,99.90
2017-11-30T07:58:32.920Z,99.90
2017-11-30T08:01:02.923Z,99.90
2017-11-30T08:03:32.176Z,99.90
2017-11-30T08:06:01.627Z,99.90
2017-11-30T08:08:31.619Z,99.90
2017-11-30T08:11:00.850Z,99.90
2017-11-30T08:13:30.883Z,99.80
2017-11-30T08:16:00.255Z,99.80
2017-11-30T08:18:29.513Z,99.50
2017-11-30T08:20:58.869Z,99.40
2017-11-30T08:23:28.891Z,99.20
2017-11-30T08:25:58.127Z,99.00
2017-11-30T08:28:27.395Z,98.20
2017-11-30T08:30:57.415Z,98.10
2017-11-30T08:33:26.680Z,98.10
2017-11-30T08:35:56.079Z,98.20
2017-11-30T08:38:25.352Z,96.70
2017-11-30T08:40:54.726Z,95.90
2017-11-30T08:43:24.828Z,94.20
2017-11-30T08:45:54.096Z,94.10
2017-11-30T08:48:23.440Z,91.60
2017-11-30T08:50:53.468Z,88.20
2017-11-30T08:53:22.687Z,88.10
2017-11-30T08:55:52.144Z,88.80
2017-11-30T08:58:21.461Z,89.50
2017-11-30T09:00:51.484Z,90.70
2017-11-30T09:03:20.877Z,90.70
2017-11-30T09:05:50.187Z,91.30
2017-11-30T09:08:20.202Z,91.10
2017-11-30T09:10:49.494Z,91.10
2017-11-30T09:13:18.783Z,91.60
2017-11-30T09:15:48.204Z,91.30
2017-11-30T09:18:18.507Z,92.70
2017-11-30T09:20:47.759Z,92.40
2017-11-30T09:23:17.023Z,93.40
2017-11-30T09:25:46.287Z,94.10
2017-11-30T09:28:15.631Z,93.90
2017-11-30T09:30:44.901Z,94.30
2017-11-30T09:33:14.145Z,93.80
2017-11-30T09:35:44.146Z,94.00
2017-11-30T09:38:13.439Z,94.00
2017-11-30T09:40:43.340Z,93.20
2017-11-30T09:43:12.691Z,92.90
2017-11-30T09:45:41.924Z,93.80
2017-11-30T09:48:11.211Z,93.80
2017-11-30T09:50:40.450Z,94.20
2017-11-30T09:53:09.724Z,93.90
2017-11-30T09:55:38.987Z,93.50
2017-11-30T09:58:08.371Z,93.70
2017-11-30T10:00:37.695Z,94.30
2017-11-30T10:03:07.074Z,94.40
2017-11-30T10:05:36.524Z,94.70
2017-11-30T10:08:06.044Z,95.00
2017-11-30T10:10:35.287Z,95.10
2017-11-30T10:13:04.537Z,95.50
2017-11-30T10:15:33.815Z,95.90
2017-11-30T10:18:03.190Z,96.10
2017-11-30T10:20:32.531Z,96.20
2017-11-30T10:23:01.776Z,96.00
2017-11-30T10:25:31.046Z,96.00
2017-11-30T10:28:00.275Z,95.70
2017-11-30T10:30:29.554Z,94.80
2017-11-30T10:32:58.812Z,94.50
2017-11-30T10:35:28.928Z,93.90
2017-11-30T10:37:58.955Z,93.40
2017-11-30T10:40:28.355Z,93.30
2017-11-30T10:42:58.404Z,92.90
2017-11-30T10:45:27.698Z,92.90
2017-11-30T10:47:57.031Z,93.00
2017-11-30T10:50:26.299Z,92.90
2017-11-30T10:52:55.657Z,93.10
2017-11-30T10:55:24.944Z,93.10
2017-11-30T10:57:54.263Z,93.00
2017-11-30T11:00:23.519Z,92.90
2017-11-30T11:02:52.821Z,92.40
2017-11-30T11:05:22.046Z,92.20
2017-11-30T11:07:51.296Z,91.60
2017-11-30T11:10:20.614Z,92.00
2017-11-30T11:12:49.963Z,92.50
2017-11-30T11:15:20.828Z,92.20
2017-11-30T11:17:50.842Z,92.80
2017-11-30T11:20:20.080Z,92.80
2017-11-30T11:22:49.335Z,92.80
2017-11-30T11:25:18.614Z,93.20
2017-11-30T11:27:47.977Z,93.50
2017-11-30T11:30:18.087Z,91.80
2017-11-30T11:32:47.360Z,91.80
2017-11-30T11:35:16.611Z,91.50
2017-11-30T11:37:45.852Z,91.40
2017-11-30T11:40:15.103Z,90.90
2017-11-30T11:42:45.123Z,90.40
2017-11-30T11:45:14.397Z,90.40
2017-11-30T11:47:43.640Z,86.20
2017-11-30T11:50:12.911Z,81.90
2017-11-30T11:52:42.215Z,82.70
2017-11-30T11:55:11.452Z,85.50
2017-11-30T11:57:40.950Z,87.80
2017-11-30T12:00:10.493Z,88.40
2017-11-30T12:02:39.703Z,88.80
2017-11-30T12:05:08.964Z,88.30
2017-11-30T12:07:38.201Z,90.10
2017-11-30T12:10:07.464Z,87.90
2017-11-30T12:12:36.778Z,84.30
2017-11-30T12:15:06.039Z,85.00
2017-11-30T12:17:35.421Z,85.70
2017-11-30T12:20:04.697Z,84.90
2017-11-30T12:22:35.511Z,85.50
2017-11-30T12:25:04.764Z,85.40
2017-11-30T12:27:34.002Z,88.80
2017-11-30T12:30:03.318Z,90.00
2017-11-30T12:32:32.576Z,90.70
2017-11-30T12:35:01.844Z,90.70
2017-11-30T12:37:31.095Z,91.20
2017-11-30T12:40:00.371Z,91.40
2017-11-30T12:42:29.823Z,91.50
2017-11-30T12:44:59.070Z,91.60
2017-11-30T12:47:28.497Z,91.90
2017-11-30T12:49:57.755Z,92.00
2017-11-30T12:52:27.054Z,92.30
2017-11-30T12:54:57.083Z,91.70
2017-11-30T12:57:26.371Z,91.70
2017-11-30T12:59:56.411Z,91.80
2017-11-30T13:02:25.682Z,91.80
2017-11-30T13:04:54.958Z,91.90
2017-11-30T13:07:24.242Z,92.20
2017-11-30T13:09:53.495Z,92.60
2017-11-30T13:12:22.743Z,92.90
2017-11-30T13:14:51.978Z,92.60
2017-11-30T13:17:21.283Z,93.30
2017-11-30T13:19:50.521Z,93.40
2017-11-30T13:22:19.749Z,93.70
2017-11-30T13:24:49.036Z,93.20
2017-11-30T13:27:18.285Z,93.60
2017-11-30T13:29:47.525Z,92.80
2017-11-30T13:32:16.787Z,92.90
2017-11-30T13:34:46.056Z,93.50
2017-11-30T13:37:15.312Z,93.20
2017-11-30T13:39:44.577Z,93.10
2017-11-30T13:42:13.837Z,93.20
2017-11-30T13:44:43.879Z,93.70
2017-11-30T13:47:13.402Z,93.70
2017-11-30T13:49:42.656Z,93.80
2017-11-30T13:52:12.902Z,93.70
2017-11-30T13:54:42.150Z,93.70
2017-11-30T13:57:12.345Z,94.00
2017-11-30T13:59:41.594Z,93.70
2017-11-30T14:02:12.581Z,93.40
2017-11-30T14:04:41.919Z,93.80
2017-11-30T14:07:11.171Z,94.00
2017-11-30T14:09:40.441Z,93.80
2017-11-30T14:12:09.733Z,94.50
2017-11-30T14:14:39.090Z,95.10
2017-11-30T14:17:08.329Z,94.80
2017-11-30T14:19:37.602Z,95.30
2017-11-30T14:22:06.875Z,94.60
2017-11-30T14:24:36.877Z,94.70
2017-11-30T14:27:06.165Z,94.70
2017-11-30T14:29:35.411Z,95.50
2017-11-30T14:32:04.709Z,95.80
2017-11-30T14:34:33.972Z,94.70
2017-11-30T14:37:03.229Z,94.50
2017-11-30T14:39:32.893Z,94.70
2017-11-30T14:42:02.175Z,94.60
2017-11-30T14:44:32.917Z,95.10
2017-11-30T14:47:02.181Z,95.00
2017-11-30T14:49:31.412Z,95.50
2017-11-30T14:52:00.741Z,95.90
2017-11-30T14:54:30.041Z,95.70
2017-11-30T14:57:00.067Z,95.50
2017-11-30T14:59:29.330Z,95.30
2017-11-30T15:01:58.568Z,94.70
2017-11-30T15:04:28.679Z,95.70
2017-11-30T15:06:58.670Z,96.70
2017-11-30T15:09:28.069Z,96.70
2017-11-30T15:11:57.325Z,96.50
2017-11-30T15:14:26.567Z,96.90
2017-11-30T15:16:55.838Z,97.10
2017-11-30T15:19:25.073Z,97.70
2017-11-30T15:21:54.343Z,98.20
2017-11-30T15:24:23.694Z,98.20
2017-11-30T15:26:53.653Z,98.50
2017-11-30T15:29:22.902Z,98.80
2017-11-30T15:31:52.182Z,98.90
2017-11-30T15:34:21.438Z,99.10
2017-11-30T15:36:50.856Z,99.30
2017-11-30T15:39:20.119Z,99.30
2017-11-30T15:41:49.376Z,99.20
2017-11-30T15:44:18.637Z,99.30
2017-11-30T15:46:48.658Z,99.30
2017-11-30T15:49:17.979Z,99.40
2017-11-30T15:51:47.378Z,99.60
2017-11-30T15:54:17.505Z,99.60
2017-11-30T15:56:47.536Z,99.90
2017-11-30T15:59:16.925Z,99.90
2017-11-30T16:01:47.050Z,99.70
2017-11-30T16:04:17.182Z,99.60
2017-11-30T16:06:46.479Z,99.60
2017-11-30T16:09:15.762Z,99.20
2017-11-30T16:11:45.882Z,99.20
2017-11-30T16:14:16.006Z,98.90
2017-11-30T16:16:46.010Z,97.80
2017-11-30T16:19:15.452Z,98.00
2017-11-30T16:21:45.438Z,98.60
2017-11-30T16:24:14.696Z,98.50
2017-11-30T16:26:43.956Z,99.20
2017-11-30T16:29:14.062Z,99.40
2017-11-30T16:31:44.090Z,99.60
2017-11-30T16:34:13.358Z,99.50
2017-11-30T16:36:42.789Z,99.60
2017-11-30T16:39:12.803Z,99.40
2017-11-30T16:41:43.613Z,98.90
2017-11-30T16:44:12.866Z,98.90
2017-11-30T16:46:42.754Z,98.90
2017-11-30T16:49:12.181Z,99.10
2017-11-30T16:51:42.281Z,99.20
2017-11-30T16:54:12.286Z,99.30
2017-11-30T16:56:41.666Z,99.10
2017-11-30T16:59:10.993Z,99.10
2017-11-30T17:01:40.329Z,98.90
2017-11-30T17:04:10.558Z,99.50
2017-11-30T17:06:39.821Z,99.50
2017-11-30T17:09:09.066Z,99.30
2017-11-30T17:11:38.373Z,98.70
2017-11-30T17:14:07.641Z,98.80
2017-11-30T17:16:36.876Z,99.10
2017-11-30T17:19:06.913Z,99.40
2017-11-30T17:21:36.167Z,99.30
2017-11-30T17:24:05.418Z,99.50
2017-11-30T17:26:34.704Z,99.60
2017-11-30T17:29:03.969Z,99.60
2017-11-30T17:31:33.202Z,99.30
2017-11-30T17:34:02.434Z,98.10
2017-11-30T17:36:31.692Z,98.20
2017-11-30T17:39:01.715Z,97.50
2017-11-30T17:41:30.956Z,97.50
2017-11-30T17:44:00.169Z,97.80
2017-11-30T17:46:29.449Z,97.90
2017-11-30T17:48:58.836Z,97.70
2017-11-30T17:51:29.080Z,97.60
2017-11-30T17:53:58.275Z,97.60
2017-11-30T17:56:27.865Z,97.60
2017-11-30T17:58:57.886Z,97.50
2017-11-30T18:01:28.003Z,97.10
2017-11-30T18:03:57.254Z,97.10
2017-11-30T18:06:26.525Z,97.10
2017-11-30T18:08:55.802Z,97.40
2017-11-30T18:11:25.035Z,97.40
2017-11-30T18:13:54.706Z,97.20
2017-11-30T18:16:23.950Z,97.30
2017-11-30T18:18:53.205Z,97.60
2017-11-30T18:21:22.537Z,98.00
2017-11-30T18:23:53.362Z,97.20
2017-11-30T18:26:23.478Z,97.30
2017-11-30T18:28:53.509Z,98.30
2017-11-30T18:31:22.774Z,98.30
2017-11-30T18:33:52.018Z,98.60
2017-11-30T18:36:21.267Z,99.00
2017-11-30T18:38:50.508Z,99.90
2017-11-30T18:41:20.567Z,99.90
2017-11-30T18:43:49.877Z,99.90
2017-11-30T18:46:19.128Z,99.90
2017-11-30T18:48:48.383Z,99.90
2017-11-30T18:51:17.737Z,99.90
2017-11-30T18:53:47.007Z,99.90
2017-11-30T18:56:17.026Z,99.90
2017-11-30T18:58:46.322Z,99.90
2017-11-30T19:01:15.563Z,99.10
2017-11-30T19:03:44.785Z,99.60
2017-11-30T19:06:14.036Z,99.60
2017-11-30T19:08:43.291Z,99.90
2017-11-30T19:11:12.543Z,99.40
2017-11-30T19:13:41.887Z,99.40
2017-11-30T19:16:11.158Z,97.90
2017-11-30T19:18:40.417Z,98.70
2017-11-30T19:21:10.473Z,98.60
2017-11-30T19:23:39.722Z,98.60
2017-11-30T19:26:09.176Z,99.20
2017-11-30T19:28:38.434Z,98.80
2017-11-30T19:31:07.724Z,98.90
2017-11-30T19:33:36.991Z,99.30
2017-11-30T19:36:06.258Z,98.30
2017-11-30T19:38:35.498Z,98.70
2017-11-30T19:41:04.769Z,99.20
2017-11-30T19:43:34.794Z,99.50
2017-11-30T19:46:04.049Z,99.50
2017-11-30T19:48:33.330Z,99.00
2017-11-30T19:51:02.588Z,99.50
2017-11-30T19:53:32.577Z,98.90
2017-11-30T19:56:01.864Z,98.90
2017-11-30T19:58:31.146Z,99.90
2017-11-30T20:01:01.129Z,99.80
2017-11-30T20:03:30.365Z,99.80
2017-11-30T20:05:59.810Z,99.90
2017-11-30T20:08:29.066Z,99.90
2017-11-30T20:10:58.342Z,99.90
2017-11-30T20:13:27.603Z,99.70
2017-11-30T20:15:56.943Z,99.60
2017-11-30T20:18:26.975Z,99.50
2017-11-30T20:20:56.229Z,99.50
2017-11-30T20:23:25.457Z,99.30
2017-11-30T20:25:55.588Z,99.20
2017-11-30T20:28:24.894Z,99.20
2017-11-30T20:30:54.915Z,99.90
2017-11-30T20:33:24.402Z,99.90
2017-11-30T20:35:53.821Z,99.50
2017-11-30T20:38:23.817Z,98.50
2017-11-30T20:40:53.832Z,98.70
2017-11-30T20:43:23.068Z,98.70
2017-11-30T20:45:52.333Z,98.70
2017-11-30T20:48:21.615Z,98.80
2017-11-30T20:50:50.961Z,98.90
2017-11-30T20:53:20.226Z,98.90
2017-11-30T20:55:49.637Z,98.90
2017-11-30T20:58:18.913Z,99.00
2017-11-30T21:00:48.167Z,99.50
2017-11-30T21:03:17.422Z,99.20
2017-11-30T21:05:46.771Z,99.30
2017-11-30T21:08:15.992Z,99.30
2017-11-30T21:10:45.282Z,99.30
2017-11-30T21:13:14.570Z,99.30
2017-11-30T21:15:44.690Z,99.20
2017-11-30T21:18:14.790Z,99.40
2017-11-30T21:20:44.110Z,99.30
2017-11-30T21:23:14.151Z,99.40
2017-11-30T21:25:43.413Z,99.40
2017-11-30T21:28:12.693Z,99.50
2017-11-30T21:30:41.961Z,99.50
2017-11-30T21:33:11.433Z,99.60
2017-11-30T21:35:40.711Z,99.70
2017-11-30T21:38:09.941Z,99.70
2017-11-30T21:40:39.195Z,99.60
2017-11-30T21:43:09.186Z,99.70
2017-11-30T21:45:38.469Z,99.90
2017-11-30T21:48:07.778Z,99.90
2017-11-30T21:50:38.531Z,99.80
2017-11-30T21:53:07.934Z,99.80
2017-11-30T21:55:37.157Z,99.90
2017-11-30T21:58:06.415Z,99.80
2017-11-30T22:00:35.665Z,99.70
2017-11-30T22:03:04.935Z,99.70
2017-11-30T22:05:34.172Z,99.70
2017-11-30T22:08:03.414Z,99.80
2017-11-30T22:10:32.662Z,99.80
2017-11-30T22:13:01.900Z,99.80
2017-11-30T22:15:31.914Z,99.80
2017-11-30T22:18:01.157Z,99.70
2017-11-30T22:20:30.413Z,99.60
2017-11-30T22:22:59.649Z,99.70
2017-11-30T22:25:28.910Z,99.60
2017-11-30T22:27:58.149Z,99.70
2017-11-30T22:30:27.615Z,99.50
2017-11-30T22:32:56.926Z,99.40
2017-11-30T22:35:27.220Z,99.20
2017-11-30T22:37:56.813Z,99.20
2017-11-30T22:40:26.962Z,99.30
2017-11-30T22:42:56.198Z,99.30
2017-11-30T22:45:25.473Z,99.50
2017-11-30T22:47:55.658Z,99.90
2017-11-30T22:50:24.922Z,99.80
2017-11-30T22:52:54.261Z,99.60
2017-11-30T22:55:23.515Z,99.70
2017-11-30T22:57:53.529Z,98.40
2017-11-30T23:00:22.919Z,98.40
2017-11-30T23:02:52.203Z,98.40
2017-11-30T23:05:21.455Z,97.90
2017-11-30T23:07:50.698Z,97.90
2017-11-30T23:10:19.961Z,98.00
2017-11-30T23:12:49.369Z,97.70
2017-11-30T23:15:18.604Z,97.50
2017-11-30T23:17:48.709Z,98.00
2017-11-30T23:20:18.105Z,98.20
2017-11-30T23:22:47.469Z,98.00
2017-11-30T23:25:16.755Z,97.90
2017-11-30T23:27:45.981Z,98.40
2017-11-30T23:30:15.238Z,98.40
2017-11-30T23:32:44.484Z,98.50
2017-11-30T23:35:13.951Z,98.10
2017-11-30T23:37:43.189Z,98.50
2017-11-30T23:40:12.438Z,98.50
2017-11-30T23:42:41.706Z,98.70
2017-11-30T23:45:10.953Z,98.80
2017-11-30T23:47:40.206Z,98.40
2017-11-30T23:50:09.454Z,98.50
2017-11-30T23:52:39.451Z,98.90
2017-11-30T23:55:08.778Z,98.90
2017-11-30T23:57:38.073Z,98.90
